createdAt,value
2018-09-16T00:02:02.569Z,99.90
2018-09-16T00:04:29.717Z,99.90
2018-09-16T00:06:56.847Z,99.90
2018-09-16T00:09:23.961Z,99.90
2018-09-16T00:11:51.064Z,99.90
2018-09-16T00:14:18.180Z,99.90
2018-09-16T00:16:45.265Z,99.90
2018-09-16T00:19:12.361Z,99.90
2018-09-16T00:21:39.466Z,99.90
2018-09-16T00:24:06.594Z,99.90
2018-09-16T00:26:34.049Z,99.90
2018-09-16T00:29:01.192Z,99.90
2018-09-16T00:31:28.473Z,99.90
2018-09-16T00:33:55.594Z,99.90
2018-09-16T00:36:22.729Z,99.90
2018-09-16T00:38:49.837Z,99.90
2018-09-16T00:41:16.968Z,99.90
2018-09-16T00:43:44.128Z,99.90
2018-09-16T00:46:11.226Z,99.90
2018-09-16T00:48:38.412Z,99.90
2018-09-16T00:51:05.706Z,99.90
2018-09-16T00:53:32.910Z,99.90
2018-09-16T00:56:00.209Z,99.90
2018-09-16T00:58:27.334Z,99.90
2018-09-16T01:00:56.506Z,99.90
2018-09-16T01:03:23.780Z,99.90
2018-09-16T01:05:56.618Z,99.90
2018-09-16T01:08:23.928Z,99.90
2018-09-16T01:10:51.085Z,99.90
2018-09-16T01:13:18.459Z,99.90
2018-09-16T01:15:46.147Z,99.90
2018-09-16T01:18:13.258Z,99.90
2018-09-16T01:20:40.370Z,99.90
2018-09-16T01:23:07.491Z,99.90
2018-09-16T01:25:34.989Z,99.90
2018-09-16T01:28:02.182Z,99.90
2018-09-16T01:30:29.335Z,99.90
2018-09-16T01:32:56.426Z,99.90
2018-09-16T01:35:23.521Z,99.90
2018-09-16T01:37:56.529Z,99.90
2018-09-16T01:40:23.638Z,99.90
2018-09-16T01:42:50.759Z,99.90
2018-09-16T01:45:17.906Z,99.90
2018-09-16T01:47:45.201Z,99.90
2018-09-16T01:50:12.310Z,99.90
2018-09-16T01:52:39.426Z,99.90
2018-09-16T01:55:06.547Z,99.90
2018-09-16T01:57:33.699Z,99.90
2018-09-16T02:00:01.228Z,99.90
2018-09-16T02:02:28.390Z,99.90
2018-09-16T02:04:55.506Z,99.90
2018-09-16T02:07:22.617Z,99.90
2018-09-16T02:09:49.724Z,99.90
2018-09-16T02:12:16.835Z,99.90
2018-09-16T02:14:43.941Z,99.90
2018-09-16T02:17:11.052Z,99.90
2018-09-16T02:19:38.185Z,99.90
2018-09-16T02:22:05.758Z,99.90
2018-09-16T02:24:32.889Z,99.90
2018-09-16T02:27:00.128Z,99.90
2018-09-16T02:29:27.361Z,99.90
2018-09-16T02:31:54.510Z,99.90
2018-09-16T02:34:21.599Z,99.90
2018-09-16T02:36:48.713Z,99.90
2018-09-16T02:39:15.835Z,99.90
2018-09-16T02:41:42.937Z,99.90
2018-09-16T02:44:10.062Z,99.90
2018-09-16T02:46:37.201Z,99.90
2018-09-16T02:49:04.494Z,99.90
2018-09-16T02:51:31.727Z,99.90
2018-09-16T02:53:59.092Z,99.90
2018-09-16T02:56:26.213Z,99.90
2018-09-16T02:58:53.318Z,99.90
2018-09-16T03:01:20.451Z,99.90
2018-09-16T03:03:47.557Z,99.90
2018-09-16T03:06:14.718Z,99.90
2018-09-16T03:08:41.846Z,99.90
2018-09-16T03:11:08.949Z,99.90
2018-09-16T03:13:36.094Z,99.90
2018-09-16T03:16:03.382Z,99.90
2018-09-16T03:18:30.688Z,99.90
2018-09-16T03:20:57.925Z,99.90
2018-09-16T03:23:25.030Z,99.90
2018-09-16T03:25:52.137Z,99.90
2018-09-16T03:28:19.230Z,99.90
2018-09-16T03:30:46.336Z,99.90
2018-09-16T03:33:13.413Z,99.90
2018-09-16T03:35:40.512Z,99.90
2018-09-16T03:38:07.619Z,99.90
2018-09-16T03:40:34.781Z,99.90
2018-09-16T03:43:01.994Z,99.90
2018-09-16T03:45:29.234Z,99.90
2018-09-16T03:47:56.346Z,99.90
2018-09-16T03:50:23.432Z,99.90
2018-09-16T03:52:50.594Z,99.90
2018-09-16T03:55:17.705Z,99.90
2018-09-16T03:57:44.788Z,99.90
2018-09-16T04:00:11.926Z,99.90
2018-09-16T04:02:39.033Z,99.90
2018-09-16T04:05:06.253Z,99.90
2018-09-16T04:07:33.458Z,99.90
2018-09-16T04:10:00.673Z,99.90
2018-09-16T04:12:27.842Z,99.90
2018-09-16T04:14:54.943Z,99.90
2018-09-16T04:17:22.060Z,99.90
2018-09-16T04:19:49.205Z,99.90
2018-09-16T04:22:16.372Z,99.90
2018-09-16T04:24:43.495Z,99.90
2018-09-16T04:27:10.605Z,99.90
2018-09-16T04:29:37.694Z,99.90
2018-09-16T04:32:04.881Z,99.90
2018-09-16T04:34:32.029Z,99.90
2018-09-16T04:36:59.190Z,99.90
2018-09-16T04:39:26.329Z,99.90
2018-09-16T04:41:53.450Z,99.90
2018-09-16T04:44:20.544Z,99.90
2018-09-16T04:46:47.664Z,99.90
2018-09-16T04:49:14.749Z,99.90
2018-09-16T04:51:41.860Z,99.90
2018-09-16T04:54:08.955Z,99.90
2018-09-16T04:56:36.045Z,99.90
2018-09-16T04:59:03.247Z,99.90
2018-09-16T05:01:30.422Z,99.90
2018-09-16T05:03:57.613Z,99.90
2018-09-16T05:06:24.761Z,99.90
2018-09-16T05:08:51.882Z,99.90
2018-09-16T05:11:19.503Z,99.90
2018-09-16T05:13:46.622Z,99.90
2018-09-16T05:16:13.749Z,99.90
2018-09-16T05:18:40.882Z,99.90
2018-09-16T05:21:08.013Z,99.90
2018-09-16T05:23:35.321Z,99.90
2018-09-16T05:26:02.447Z,99.90
2018-09-16T05:28:29.645Z,99.90
2018-09-16T05:30:56.785Z,99.90
2018-09-16T05:33:23.954Z,99.90
2018-09-16T05:35:51.085Z,99.90
2018-09-16T05:38:18.266Z,99.90
2018-09-16T05:40:45.378Z,99.90
2018-09-16T05:43:12.511Z,99.90
2018-09-16T05:45:39.604Z,99.90
2018-09-16T05:48:06.727Z,99.90
2018-09-16T05:50:33.840Z,99.90
2018-09-16T05:53:01.079Z,99.90
2018-09-16T05:55:28.129Z,99.90
2018-09-16T05:57:55.301Z,99.90
2018-09-16T06:00:26.280Z,99.90
2018-09-16T06:02:53.452Z,99.90
2018-09-16T06:05:20.609Z,99.90
2018-09-16T06:07:47.769Z,99.90
2018-09-16T06:10:14.892Z,99.90
2018-09-16T06:12:42.172Z,99.90
2018-09-16T06:15:09.319Z,99.90
2018-09-16T06:17:36.436Z,99.90
2018-09-16T06:20:03.610Z,99.90
2018-09-16T06:22:30.823Z,99.90
2018-09-16T06:24:58.034Z,99.90
2018-09-16T06:27:25.183Z,99.90
2018-09-16T06:29:52.281Z,99.90
2018-09-16T06:32:19.395Z,90.40
2018-09-16T06:34:46.533Z,66.70
2018-09-16T06:37:13.632Z,55.70
2018-09-16T06:39:40.783Z,50.70
2018-09-16T06:42:07.948Z,47.30
2018-09-16T06:44:35.051Z,44.90
2018-09-16T06:47:02.151Z,43.00
2018-09-16T06:49:29.355Z,42.60
2018-09-16T06:51:56.576Z,40.70
2018-09-16T06:54:23.689Z,39.30
2018-09-16T06:56:50.797Z,38.40
2018-09-16T06:59:17.966Z,37.80
2018-09-16T07:01:45.068Z,37.10
2018-09-16T07:04:12.164Z,36.60
2018-09-16T07:06:39.271Z,35.20
2018-09-16T07:09:08.684Z,35.00
2018-09-16T07:11:35.772Z,35.40
2018-09-16T07:14:03.305Z,34.40
2018-09-16T07:16:30.727Z,34.10
2018-09-16T07:18:57.892Z,33.60
2018-09-16T07:21:25.020Z,33.20
2018-09-16T07:23:52.125Z,33.00
2018-09-16T07:26:19.235Z,32.40
2018-09-16T07:28:46.368Z,32.60
2018-09-16T07:31:13.478Z,31.90
2018-09-16T07:33:40.633Z,31.40
2018-09-16T07:36:07.748Z,31.00
2018-09-16T07:38:34.863Z,31.30
2018-09-16T07:41:02.038Z,30.40
2018-09-16T07:43:29.174Z,30.00
2018-09-16T07:45:56.303Z,29.80
2018-09-16T07:48:23.410Z,29.40
2018-09-16T07:50:50.533Z,30.60
2018-09-16T07:53:17.758Z,31.70
2018-09-16T07:55:44.843Z,31.80
2018-09-16T07:58:11.969Z,30.90
2018-09-16T08:00:39.097Z,30.30
2018-09-16T08:03:06.246Z,29.50
2018-09-16T08:05:33.431Z,29.70
2018-09-16T08:08:00.574Z,29.40
2018-09-16T08:10:27.765Z,29.00
2018-09-16T08:12:55.898Z,29.40
2018-09-16T08:15:23.083Z,28.60
2018-09-16T08:17:50.206Z,29.60
2018-09-16T08:20:17.349Z,30.20
2018-09-16T08:22:44.486Z,30.00
2018-09-16T08:25:11.640Z,29.60
2018-09-16T08:27:38.761Z,30.40
2018-09-16T08:30:06.003Z,31.00
2018-09-16T08:32:33.245Z,31.80
2018-09-16T08:35:00.584Z,31.80
2018-09-16T08:37:27.829Z,32.40
2018-09-16T08:39:55.008Z,31.00
2018-09-16T08:42:22.528Z,32.60
2018-09-16T08:44:49.734Z,33.90
2018-09-16T08:47:16.864Z,34.10
2018-09-16T08:49:43.977Z,34.40
2018-09-16T08:52:11.191Z,35.30
2018-09-16T08:54:38.251Z,36.70
2018-09-16T08:57:05.161Z,37.70
2018-09-16T08:59:32.605Z,38.10
2018-09-16T09:01:59.866Z,39.70
2018-09-16T09:04:27.098Z,41.20
2018-09-16T09:06:54.577Z,42.60
2018-09-16T09:09:22.015Z,42.80
2018-09-16T09:11:49.130Z,43.00
2018-09-16T09:14:16.346Z,43.60
2018-09-16T09:16:43.451Z,44.10
2018-09-16T09:19:17.398Z,44.80
2018-09-16T09:21:44.515Z,45.00
2018-09-16T09:24:11.626Z,44.70
2018-09-16T09:26:38.748Z,43.90
2018-09-16T09:29:05.915Z,44.10
2018-09-16T09:31:33.062Z,44.70
2018-09-16T09:34:00.213Z,44.90
2018-09-16T09:36:27.372Z,45.00
2018-09-16T09:38:54.622Z,45.30
2018-09-16T09:41:21.738Z,44.70
2018-09-16T09:43:48.938Z,44.50
2018-09-16T09:46:16.057Z,44.70
2018-09-16T09:48:43.198Z,44.50
2018-09-16T09:51:10.325Z,44.60
2018-09-16T09:53:37.446Z,44.60
2018-09-16T09:56:04.550Z,44.50
2018-09-16T09:58:31.665Z,44.30
2018-09-16T10:00:58.794Z,45.00
2018-09-16T10:03:26.036Z,45.20
2018-09-16T10:05:53.197Z,44.60
2018-09-16T10:08:20.350Z,43.80
2018-09-16T10:10:47.889Z,44.80
2018-09-16T10:13:14.990Z,44.20
2018-09-16T10:15:42.673Z,44.30
2018-09-16T10:18:09.809Z,44.50
2018-09-16T10:20:36.927Z,44.80
2018-09-16T10:23:04.336Z,44.50
2018-09-16T10:25:31.458Z,45.00
2018-09-16T10:27:58.610Z,44.50
2018-09-16T10:30:25.759Z,44.40
2018-09-16T10:32:52.876Z,44.40
2018-09-16T10:35:19.988Z,44.20
2018-09-16T10:37:47.094Z,43.80
2018-09-16T10:40:14.221Z,44.00
2018-09-16T10:42:41.434Z,43.50
2018-09-16T10:45:08.589Z,43.20
2018-09-16T10:47:35.768Z,43.80
2018-09-16T10:50:02.909Z,43.80
2018-09-16T10:52:30.067Z,43.80
2018-09-16T10:54:57.202Z,43.90
2018-09-16T10:57:24.332Z,43.60
2018-09-16T10:59:51.441Z,43.60
2018-09-16T11:02:18.574Z,43.40
2018-09-16T11:04:45.741Z,43.40
2018-09-16T11:07:15.306Z,43.90
2018-09-16T11:09:42.436Z,43.20
2018-09-16T11:12:09.532Z,43.40
2018-09-16T11:14:36.625Z,43.20
2018-09-16T11:17:03.794Z,43.20
2018-09-16T11:19:30.905Z,43.40
2018-09-16T11:21:58.121Z,43.20
2018-09-16T11:24:25.302Z,42.90
2018-09-16T11:26:52.422Z,43.30
2018-09-16T11:29:19.666Z,44.00
2018-09-16T11:31:46.771Z,44.10
2018-09-16T11:34:13.902Z,43.80
2018-09-16T11:36:41.005Z,43.70
2018-09-16T11:39:09.448Z,44.00
2018-09-16T11:41:36.562Z,43.80
2018-09-16T11:44:03.673Z,43.60
2018-09-16T11:46:30.936Z,43.60
2018-09-16T11:48:58.060Z,43.60
2018-09-16T11:51:25.263Z,43.50
2018-09-16T11:53:52.410Z,43.10
2018-09-16T11:56:19.550Z,42.70
2018-09-16T11:58:46.660Z,42.90
2018-09-16T12:01:13.855Z,42.40
2018-09-16T12:03:40.957Z,42.70
2018-09-16T12:06:08.089Z,42.70
2018-09-16T12:08:35.260Z,43.10
2018-09-16T12:11:02.391Z,43.10
2018-09-16T12:13:29.545Z,43.10
2018-09-16T12:15:56.685Z,43.10
2018-09-16T12:18:23.801Z,42.80
2018-09-16T12:20:50.912Z,42.80
2018-09-16T12:23:18.004Z,43.10
2018-09-16T12:25:45.098Z,43.90
2018-09-16T12:28:12.214Z,43.30
2018-09-16T12:30:39.308Z,43.10
2018-09-16T12:33:06.401Z,43.00
2018-09-16T12:35:33.604Z,43.00
2018-09-16T12:38:00.723Z,43.40
2018-09-16T12:40:27.989Z,42.70
2018-09-16T12:42:55.262Z,43.00
2018-09-16T12:45:22.420Z,42.90
2018-09-16T12:47:49.539Z,42.60
2018-09-16T12:50:16.669Z,42.60
2018-09-16T12:52:43.839Z,42.80
2018-09-16T12:55:10.957Z,42.90
2018-09-16T12:57:38.049Z,42.80
2018-09-16T13:00:05.280Z,43.00
2018-09-16T13:02:32.425Z,42.70
2018-09-16T13:04:59.606Z,42.20
2018-09-16T13:07:26.731Z,42.50
2018-09-16T13:09:53.997Z,42.80
2018-09-16T13:12:21.122Z,42.60
2018-09-16T13:14:48.263Z,42.70
2018-09-16T13:17:15.402Z,42.60
2018-09-16T13:19:42.520Z,42.70
2018-09-16T13:22:09.631Z,42.50
2018-09-16T13:24:36.887Z,42.30
2018-09-16T13:27:04.086Z,42.50
2018-09-16T13:29:31.260Z,42.70
2018-09-16T13:31:58.560Z,42.50
2018-09-16T13:34:25.684Z,42.40
2018-09-16T13:36:52.843Z,42.70
2018-09-16T13:39:19.986Z,46.30
2018-09-16T13:41:47.135Z,42.20
2018-09-16T13:44:14.245Z,43.50
2018-09-16T13:46:41.364Z,42.80
2018-09-16T13:49:08.469Z,44.30
2018-09-16T13:51:35.606Z,43.20
2018-09-16T13:54:02.762Z,42.50
2018-09-16T13:56:29.905Z,43.60
2018-09-16T13:58:57.126Z,42.70
2018-09-16T14:01:24.240Z,43.80
2018-09-16T14:03:51.375Z,43.20
2018-09-16T14:06:18.501Z,44.10
2018-09-16T14:08:45.637Z,44.00
2018-09-16T14:11:12.775Z,42.90
2018-09-16T14:13:39.919Z,43.00
2018-09-16T14:16:07.058Z,43.10
2018-09-16T14:18:34.213Z,43.20
2018-09-16T14:21:01.603Z,42.80
2018-09-16T14:23:28.770Z,42.90
2018-09-16T14:26:02.574Z,43.30
2018-09-16T14:28:29.778Z,43.40
2018-09-16T14:30:56.992Z,43.30
2018-09-16T14:33:24.215Z,43.20
2018-09-16T14:35:51.359Z,43.30
2018-09-16T14:38:18.505Z,43.80
2018-09-16T14:40:45.647Z,42.70
2018-09-16T14:43:12.770Z,42.80
2018-09-16T14:45:39.890Z,42.90
2018-09-16T14:48:07.105Z,43.60
2018-09-16T14:50:34.419Z,43.50
2018-09-16T14:53:01.706Z,44.10
2018-09-16T14:55:28.858Z,43.70
2018-09-16T14:57:55.990Z,43.00
2018-09-16T15:00:23.113Z,42.80
2018-09-16T15:02:50.220Z,43.30
2018-09-16T15:05:17.377Z,42.80
2018-09-16T15:07:44.578Z,42.90
2018-09-16T15:10:11.664Z,43.30
2018-09-16T15:12:38.772Z,41.80
2018-09-16T15:15:06.165Z,41.40
2018-09-16T15:17:33.286Z,41.90
2018-09-16T15:20:00.739Z,41.40
2018-09-16T15:22:28.007Z,41.30
2018-09-16T15:24:55.184Z,41.00
2018-09-16T15:27:22.315Z,41.20
2018-09-16T15:29:49.467Z,42.30
2018-09-16T15:32:16.595Z,41.60
2018-09-16T15:34:43.712Z,40.50
2018-09-16T15:37:10.835Z,39.70
2018-09-16T15:39:37.964Z,39.40
2018-09-16T15:42:05.114Z,40.10
2018-09-16T15:44:32.426Z,39.80
2018-09-16T15:46:59.590Z,40.30
2018-09-16T15:49:26.786Z,38.80
2018-09-16T15:51:53.958Z,38.70
2018-09-16T15:54:21.128Z,39.10
2018-09-16T15:56:48.249Z,40.00
2018-09-16T15:59:15.421Z,39.90
2018-09-16T16:01:42.555Z,40.00
2018-09-16T16:04:09.743Z,39.80
2018-09-16T16:06:36.858Z,40.10
2018-09-16T16:09:06.822Z,39.60
2018-09-16T16:11:34.081Z,40.40
2018-09-16T16:14:01.365Z,40.60
2018-09-16T16:16:28.858Z,40.90
2018-09-16T16:18:56.040Z,41.40
2018-09-16T16:21:23.154Z,41.40
2018-09-16T16:23:50.506Z,41.90
2018-09-16T16:26:17.618Z,41.50
2018-09-16T16:28:44.728Z,41.50
2018-09-16T16:31:11.817Z,41.60
2018-09-16T16:33:39.429Z,41.80
2018-09-16T16:36:06.646Z,41.80
2018-09-16T16:38:33.749Z,41.60
2018-09-16T16:41:01.023Z,41.70
2018-09-16T16:43:28.283Z,42.10
2018-09-16T16:45:56.143Z,41.90
2018-09-16T16:48:23.250Z,42.10
2018-09-16T16:50:50.356Z,42.20
2018-09-16T16:53:17.445Z,42.50
2018-09-16T16:55:44.551Z,42.40
2018-09-16T16:58:11.692Z,43.20
2018-09-16T17:00:38.825Z,43.20
2018-09-16T17:03:05.946Z,43.60
2018-09-16T17:05:33.340Z,44.10
2018-09-16T17:08:00.590Z,44.30
2018-09-16T17:10:27.790Z,44.80
2018-09-16T17:12:55.002Z,45.60
2018-09-16T17:15:22.185Z,47.10
2018-09-16T17:17:49.271Z,47.80
2018-09-16T17:20:16.362Z,48.60
2018-09-16T17:22:43.474Z,49.20
2018-09-16T17:25:10.571Z,50.20
2018-09-16T17:27:37.695Z,50.70
2018-09-16T17:30:04.805Z,51.10
2018-09-16T17:32:31.930Z,51.90
2018-09-16T17:34:59.079Z,51.90
2018-09-16T17:37:27.091Z,51.70
2018-09-16T17:39:54.226Z,52.10
2018-09-16T17:42:21.422Z,52.10
2018-09-16T17:44:48.723Z,52.40
2018-09-16T17:47:15.975Z,53.20
2018-09-16T17:49:43.276Z,53.90
2018-09-16T17:52:10.514Z,54.60
2018-09-16T17:54:37.760Z,55.00
2018-09-16T17:57:05.173Z,55.40
2018-09-16T17:59:32.436Z,56.50
2018-09-16T18:01:59.867Z,57.30
2018-09-16T18:04:27.352Z,57.70
2018-09-16T18:06:54.571Z,58.50
2018-09-16T18:09:21.690Z,59.30
2018-09-16T18:11:48.987Z,59.70
2018-09-16T18:14:16.154Z,60.20
2018-09-16T18:16:43.424Z,60.50
2018-09-16T18:19:10.666Z,60.90
2018-09-16T18:21:37.865Z,61.60
2018-09-16T18:24:05.124Z,61.50
2018-09-16T18:26:32.288Z,61.40
2018-09-16T18:28:59.511Z,61.60
2018-09-16T18:31:26.778Z,61.40
2018-09-16T18:33:54.015Z,60.60
2018-09-16T18:36:21.261Z,60.30
2018-09-16T18:38:48.475Z,60.20
2018-09-16T18:41:15.708Z,60.20
2018-09-16T18:43:42.966Z,60.30
2018-09-16T18:46:10.168Z,60.50
2018-09-16T18:48:37.369Z,60.80
2018-09-16T18:51:04.561Z,60.80
2018-09-16T18:53:31.923Z,60.60
2018-09-16T18:55:59.200Z,60.50
2018-09-16T18:58:26.503Z,60.10
2018-09-16T19:00:53.722Z,61.20
2018-09-16T19:03:21.082Z,61.40
2018-09-16T19:05:48.352Z,61.50
2018-09-16T19:08:15.516Z,61.90
2018-09-16T19:10:42.723Z,62.70
2018-09-16T19:13:09.980Z,62.80
2018-09-16T19:15:37.163Z,62.50
2018-09-16T19:18:04.434Z,62.20
2018-09-16T19:20:31.697Z,62.60
2018-09-16T19:22:58.926Z,62.90
2018-09-16T19:25:26.625Z,63.20
2018-09-16T19:27:53.801Z,63.60
2018-09-16T19:30:21.093Z,63.90
2018-09-16T19:32:48.281Z,63.50
2018-09-16T19:35:15.524Z,63.20
2018-09-16T19:37:42.707Z,63.10
2018-09-16T19:40:10.064Z,63.60
2018-09-16T19:42:37.169Z,64.00
2018-09-16T19:45:04.831Z,64.40
2018-09-16T19:47:32.190Z,64.30
2018-09-16T19:49:59.611Z,64.20
2018-09-16T19:52:26.984Z,63.60
2018-09-16T19:54:54.727Z,63.30
2018-09-16T19:57:21.952Z,63.60
2018-09-16T19:59:49.214Z,63.80
2018-09-16T20:02:16.365Z,64.00
2018-09-16T20:04:43.572Z,64.40
2018-09-16T20:07:10.793Z,64.70
2018-09-16T20:09:38.051Z,64.60
2018-09-16T20:12:05.313Z,63.70
2018-09-16T20:14:32.566Z,63.30
2018-09-16T20:16:59.835Z,62.20
2018-09-16T20:19:27.171Z,62.30
2018-09-16T20:21:54.404Z,62.40
2018-09-16T20:24:21.597Z,62.90
2018-09-16T20:26:48.786Z,63.30
2018-09-16T20:29:15.949Z,63.90
2018-09-16T20:31:43.158Z,64.50
2018-09-16T20:34:10.998Z,64.70
2018-09-16T20:36:38.182Z,65.20
2018-09-16T20:39:07.073Z,65.20
2018-09-16T20:41:34.270Z,65.10
2018-09-16T20:44:01.605Z,65.60
2018-09-16T20:46:28.934Z,65.00
2018-09-16T20:48:56.315Z,65.10
2018-09-16T20:51:23.563Z,65.20
2018-09-16T20:53:50.910Z,65.80
2018-09-16T20:56:18.142Z,65.30
2018-09-16T20:58:45.376Z,65.20
2018-09-16T21:01:12.628Z,65.10
2018-09-16T21:03:39.919Z,65.10
2018-09-16T21:06:07.138Z,65.10
2018-09-16T21:08:34.322Z,65.60
2018-09-16T21:11:01.615Z,65.70
2018-09-16T21:13:28.957Z,65.90
2018-09-16T21:15:56.282Z,66.70
2018-09-16T21:18:23.539Z,67.60
2018-09-16T21:20:50.730Z,68.40
2018-09-16T21:23:17.995Z,69.10
2018-09-16T21:25:45.439Z,69.70
2018-09-16T21:28:12.831Z,69.30
2018-09-16T21:30:40.045Z,68.80
2018-09-16T21:33:07.327Z,68.70
2018-09-16T21:35:34.535Z,68.70
2018-09-16T21:38:01.803Z,68.70
2018-09-16T21:40:29.062Z,69.70
2018-09-16T21:42:56.454Z,70.50
2018-09-16T21:45:23.656Z,71.10
2018-09-16T21:47:50.968Z,70.30
2018-09-16T21:50:18.280Z,70.60
2018-09-16T21:52:45.530Z,71.00
2018-09-16T21:55:12.750Z,71.40
2018-09-16T21:57:40.046Z,72.20
2018-09-16T22:00:07.640Z,72.70
2018-09-16T22:02:35.398Z,73.30
2018-09-16T22:05:02.763Z,73.80
2018-09-16T22:07:29.939Z,74.50
2018-09-16T22:09:57.412Z,74.60
2018-09-16T22:12:25.306Z,75.70
2018-09-16T22:14:52.599Z,76.50
2018-09-16T22:17:19.819Z,77.90
2018-09-16T22:19:47.031Z,78.60
2018-09-16T22:22:14.251Z,79.60
2018-09-16T22:24:41.481Z,80.50
2018-09-16T22:27:08.710Z,80.40
2018-09-16T22:29:36.306Z,80.40
2018-09-16T22:32:03.446Z,80.40
2018-09-16T22:34:30.575Z,81.30
2018-09-16T22:36:57.749Z,82.90
2018-09-16T22:39:25.121Z,84.10
2018-09-16T22:41:52.236Z,85.60
2018-09-16T22:44:19.349Z,86.10
2018-09-16T22:46:46.484Z,86.80
2018-09-16T22:49:13.622Z,87.10
2018-09-16T22:51:40.731Z,87.30
2018-09-16T22:54:07.829Z,87.80
2018-09-16T22:56:34.997Z,88.90
2018-09-16T22:59:02.224Z,89.80
2018-09-16T23:01:29.401Z,90.20
2018-09-16T23:03:56.596Z,90.90
2018-09-16T23:06:23.727Z,91.50
2018-09-16T23:08:55.460Z,91.80
2018-09-16T23:11:22.814Z,91.60
2018-09-16T23:13:50.145Z,90.90
2018-09-16T23:16:17.308Z,90.60
2018-09-16T23:18:44.453Z,90.00
2018-09-16T23:21:11.598Z,90.40
2018-09-16T23:23:38.721Z,90.60
2018-09-16T23:26:06.193Z,91.20
2018-09-16T23:28:33.344Z,91.70
2018-09-16T23:31:00.632Z,92.10
2018-09-16T23:33:27.814Z,92.50
2018-09-16T23:35:54.936Z,93.10
2018-09-16T23:38:22.057Z,93.50
2018-09-16T23:40:49.176Z,94.20
2018-09-16T23:43:16.277Z,94.50
2018-09-16T23:45:43.426Z,94.90
2018-09-16T23:48:10.530Z,95.20
2018-09-16T23:50:37.625Z,96.00
2018-09-16T23:53:04.920Z,96.40
2018-09-16T23:55:32.039Z,96.60
2018-09-16T23:57:59.216Z,97.10
